Time;durP1;ratioP1;P1;durP2;ratioP2;P2;SDS_P1;SDS_P2;PMS_P1;PMS_P2;Temp;Humidity;BMP_temperature;BMP_pressure;BME280_temperature;BME280_humidity;BME280_pressure;Samples;Min_cycle;Max_cycle;Signal;HPM_P1;HPM_P2
2022/09/18 00:03:07;;;;;;;28.45;12.07;;;;;;;17.44;97.04;99668.81;10496980;28;20048;-69
2022/09/18 00:08:08;;;;;;;39.22;11.02;;;;;;;17.17;97.57;99628.13;10496520;28;20408;-69
2022/09/18 00:13:09;;;;;;;33.03;10.38;;;;;;;17.56;98.25;99701.06;10496494;28;20042;-69
2022/09/18 00:18:12;;;;;;;25.55;10.10;;;;;;;17.04;97.77;99609.50;10497549;28;20593;-69
2022/09/18 00:23:14;;;;;;;31.88;10.20;;;;;;;17.40;98.39;99697.16;10495497;28;20098;-69
2022/09/18 00:28:15;;;;;;;31.33;9.60;;;;;;;17.21;98.73;99666.88;10537978;28;20164;-69
2022/09/18 00:33:15;;;;;;;29.27;10.27;;;;;;;17.17;98.92;99646.06;10536808;28;20580;-69
2022/09/18 00:38:16;;;;;;;25.85;10.60;;;;;;;17.40;99.14;99691.78;10540620;28;20036;-69
2022/09/18 00:43:22;;;;;;;34.38;12.98;;;;;;;17.39;100.00;99692.03;10504098;28;20074;-69
2022/09/18 00:48:32;;;;;;;31.13;13.85;;;;;;;16.83;100.00;99624.25;10503802;28;20127;-69
2022/09/18 00:53:38;;;;;;;30.58;10.95;;;;;;;17.14;100.00;99670.66;10503600;28;20052;-69
2022/09/18 00:58:39;;;;;;;17.77;8.15;;;;;;;16.84;99.60;99624.03;10503217;28;20466;-69
2022/09/18 01:03:40;;;;;;;19.20;7.43;;;;;;;16.92;100.00;99651.56;10502113;28;20053;-69
2022/09/18 01:09:21;;;;;;;14.00;7.38;;;;;;;17.18;100.00;99693.34;10502062;28;20040;-69
2022/09/18 01:14:40;;;;;;;20.27;7.18;;;;;;;17.10;100.00;99684.53;10500551;28;20048;-69
2022/09/18 01:19:59;;;;;;;16.15;6.78;;;;;;;17.03;100.00;99683.81;10501101;28;20406;-69
2022/09/18 01:25:18;;;;;;;24.60;9.55;;;;;;;16.95;100.00;99678.75;10502175;28;20048;-69
2022/09/18 01:30:19;;;;;;;46.47;21.27;;;;;;;16.78;100.00;99658.97;10501452;28;20040;-69
2022/09/18 01:35:30;;;;;;;72.22;36.88;;;;;;;16.75;100.00;99665.59;10502428;28;20496;-69
2022/09/18 01:40:38;;;;;;;39.15;20.45;;;;;;;16.58;100.00;99648.47;10502017;28;20036;-69
2022/09/18 01:45:47;;;;;;;24.73;8.95;;;;;;;16.63;100.00;99667.34;10501430;28;20042;-69
2022/09/18 01:50:54;;;;;;;17.92;7.32;;;;;;;16.76;100.00;99688.69;10514947;28;20047;-69
2022/09/18 01:56:06;;;;;;;32.88;11.52;;;;;;;16.51;100.00;99651.22;10501525;28;20045;-69
2022/09/18 02:01:13;;;;;;;42.78;12.40;;;;;;;16.58;100.00;99654.63;10499917;28;20097;-69
2022/09/18 02:06:26;;;;;;;26.38;12.23;;;;;;;16.07;100.00;99572.72;10500210;28;20053;-69
2022/09/18 02:11:28;;;;;;;38.63;12.10;;;;;;;16.63;100.00;99675.41;10500855;28;20393;-68
2022/09/18 02:16:37;;;;;;;41.47;9.18;;;;;;;16.39;100.00;99651.13;10499467;28;20040;-68
2022/09/18 02:21:41;;;;;;;15.77;6.85;;;;;;;16.20;100.00;99636.06;10499387;28;20482;-69
2022/09/18 02:26:44;;;;;;;14.65;6.43;;;;;;;16.39;100.00;99669.91;10499854;28;20156;-69
2022/09/18 02:31:47;;;;;;;15.10;6.55;;;;;;;16.33;100.00;99676.16;10500338;28;20048;-69
2022/09/18 02:36:51;;;;;;;13.13;5.78;;;;;;;16.37;100.00;99692.59;10499701;28;20040;-69
2022/09/18 02:41:58;;;;;;;15.80;5.47;;;;;;;16.40;100.00;99692.97;10498783;28;20048;-68
2022/09/18 02:47:40;;;;;;;18.33;6.05;;;;;;;16.46;100.00;99695.81;10498416;28;20419;-68
2022/09/18 02:52:50;;;;;;;31.15;8.10;;;;;;;16.40;100.00;99697.53;10497380;28;20052;-69
2022/09/18 02:58:05;;;;;;;22.17;9.00;;;;;;;16.47;100.00;99686.72;10498715;28;20070;-69
2022/09/18 03:03:13;;;;;;;34.05;10.07;;;;;;;16.16;100.00;99622.31;10498560;28;20086;-69
2022/09/18 03:08:13;;;;;;;30.80;14.15;;;;;;;16.69;100.00;99695.97;10497722;28;20084;-69
2022/09/18 03:13:14;;;;;;;37.78;15.00;;;;;;;16.79;100.00;99701.66;10497049;28;20497;-69
2022/09/18 03:18:15;;;;;;;32.90;15.75;;;;;;;16.97;100.00;99702.69;10497571;28;20523;-68
2022/09/18 03:23:16;;;;;;;46.00;15.68;;;;;;;16.49;100.00;99604.22;10496675;28;20044;-69
2022/09/18 03:28:17;;;;;;;52.35;25.27;;;;;;;17.23;100.00;99698.81;10496854;28;20407;-68
2022/09/18 03:33:18;;;;;;;25.50;12.35;;;;;;;17.10;100.00;99648.84;10496457;28;20064;-69
2022/09/18 03:38:19;;;;;;;27.00;10.98;;;;;;;17.84;100.00;99723.81;10496670;28;20101;-69
2022/09/18 03:43:19;;;;;;;28.80;11.63;;;;;;;18.03;100.00;99703.84;10496649;28;20053;-69
2022/09/18 03:48:20;;;;;;;33.00;12.55;;;;;;;18.69;99.33;99729.56;10495203;28;20040;-69
2022/09/18 03:53:21;;;;;;;27.23;11.52;;;;;;;19.28;97.23;99732.13;10495122;28;20040;-69
2022/09/18 03:58:22;;;;;;;23.42;11.73;;;;;;;19.94;94.02;99737.94;10496804;28;20123;-69
2022/09/18 04:03:23;;;;;;;23.27;11.48;;;;;;;20.52;91.14;99712.44;10495978;28;20040;-69
2022/09/18 04:08:24;;;;;;;25.40;11.07;;;;;;;21.13;88.19;99708.84;10528937;28;20411;-70
2022/09/18 04:13:24;;;;;;;20.75;10.30;;;;;;;21.29;85.12;99626.91;10537853;28;20035;-69
2022/09/18 04:18:25;;;;;;;22.38;11.23;;;;;;;22.36;82.16;99705.38;10515105;28;20032;-70
2022/09/18 04:23:26;;;;;;;24.52;10.77;;;;;;;22.81;79.50;99685.03;10507600;28;20048;-70
2022/09/18 04:28:27;;;;;;;21.35;9.50;;;;;;;23.40;77.11;99709.09;10537725;28;20032;-70
2022/09/18 04:33:28;;;;;;;61.65;12.77;;;;;;;23.66;75.62;99723.50;10537608;28;20040;-70
2022/09/18 04:38:28;;;;;;;22.13;11.82;;;;;;;23.35;74.24;99641.31;10535862;28;20435;-70
2022/09/18 04:43:29;;;;;;;28.10;13.07;;;;;;;23.79;73.28;99705.13;10552403;28;20097;-69
2022/09/18 04:48:30;;;;;;;23.23;10.02;;;;;;;23.44;72.67;99620.72;10537176;28;20032;-70
2022/09/18 04:53:33;;;;;;;16.77;8.32;;;;;;;24.03;71.93;99679.06;10537704;28;20040;-70
2022/09/18 04:58:33;;;;;;;199.70;17.92;;;;;;;24.41;71.96;99706.69;10530619;28;20119;-70
2022/09/18 05:03:34;;;;;;;40.78;7.30;;;;;;;24.86;70.98;99701.38;10518431;28;20125;-70
2022/09/18 05:08:36;;;;;;;21.77;5.40;;;;;;;25.19;70.00;99700.72;10516834;28;20090;-70
2022/09/18 05:13:38;;;;;;;32.15;5.75;;;;;;;25.26;68.29;99657.72;10494812;28;20049;-70
2022/09/18 05:18:39;;;;;;;12.40;4.57;;;;;;;25.31;66.03;99648.75;10500139;28;20036;-69
2022/09/18 05:23:39;;;;;;;12.05;4.85;;;;;;;25.87;65.05;99712.78;10540451;28;20052;-69
2022/09/18 05:28:40;;;;;;;10.20;4.53;;;;;;;26.06;63.90;99704.75;10526539;28;20044;-69
2022/09/18 05:33:41;;;;;;;32.08;5.72;;;;;;;26.25;63.46;99699.41;10501195;28;20048;-70
2022/09/18 05:38:44;;;;;;;31.23;4.40;;;;;;;26.15;61.96;99646.69;10501634;28;20051;-68
2022/09/18 05:43:45;;;;;;;15.77;4.33;;;;;;;26.23;60.85;99625.34;10500795;28;20092;-71
2022/09/18 05:48:48;;;;;;;16.92;3.63;;;;;;;27.01;58.94;99711.34;10522830;28;20504;-72
2022/09/18 05:53:49;;;;;;;15.00;3.42;;;;;;;27.15;58.35;99676.84;10512440;28;20546;-73
2022/09/18 05:58:49;;;;;;;10.70;3.30;;;;;;;27.22;56.71;99643.75;10500050;28;20049;-71
2022/09/18 06:03:50;;;;;;;11.13;3.40;;;;;;;27.33;55.79;99617.16;10500758;28;20063;-71
2022/09/18 06:08:53;;;;;;;30.83;4.32;;;;;;;28.07;54.06;99699.97;10499771;28;20404;-72
2022/09/18 06:13:53;;;;;;;7.50;3.30;;;;;;;27.86;53.41;99639.47;10500117;28;20121;-72
2022/09/18 06:18:54;;;;;;;10.02;3.03;;;;;;;28.42;52.21;99701.28;10498937;28;20125;-71
2022/09/18 06:23:55;;;;;;;11.50;3.35;;;;;;;28.28;51.65;99617.69;10515565;28;20063;-71
2022/09/18 06:28:56;;;;;;;11.68;3.20;;;;;;;28.78;50.79;99686.91;10500161;28;20131;-75
2022/09/18 06:33:57;;;;;;;23.95;3.75;;;;;;;28.84;50.15;99663.81;10498173;28;20131;-71
2022/09/18 06:38:58;;;;;;;17.80;3.28;;;;;;;29.22;50.12;99687.34;10498907;28;20447;-72
2022/09/18 06:43:58;;;;;;;9.70;2.85;;;;;;;29.20;49.00;99670.47;10499415;28;20049;-69
2022/09/18 06:48:59;;;;;;;8.82;3.30;;;;;;;29.44;47.80;99670.19;10499064;28;20165;-69
2022/09/18 06:54:00;;;;;;;10.60;3.08;;;;;;;29.79;47.75;99668.50;10498775;28;20051;-69
2022/09/18 06:59:01;;;;;;;7.53;2.70;;;;;;;30.03;46.33;99660.78;10497803;28;20067;-69
2022/09/18 07:04:02;;;;;;;9.52;2.70;;;;;;;29.84;45.44;99599.94;10496696;28;20424;-70
2022/09/18 07:09:03;;;;;;;12.70;2.83;;;;;;;30.31;43.99;99648.84;10497218;28;20048;-69
2022/09/18 07:14:08;;;;;;;8.07;3.05;;;;;;;30.52;42.82;99654.56;10497555;28;20048;-70
2022/09/18 07:19:08;;;;;;;17.77;3.28;;;;;;;30.32;42.88;99596.47;10497560;28;20138;-68
2022/09/18 07:24:09;;;;;;;15.85;2.95;;;;;;;30.89;42.08;99637.56;10497059;28;20144;-71
2022/09/18 07:29:10;;;;;;;11.02;2.90;;;;;;;30.44;41.88;99541.84;10497069;28;20033;-72
2022/09/18 07:34:11;;;;;;;28.42;4.20;;;;;;;31.20;40.55;99616.59;10496622;28;20036;-70
2022/09/18 07:39:12;;;;;;;13.32;2.45;;;;;;;31.17;40.18;99590.59;10497112;28;20473;-67
2022/09/18 07:44:12;;;;;;;15.00;3.22;;;;;;;31.40;38.84;99615.97;10496507;28;20134;-67
2022/09/18 07:49:13;;;;;;;10.27;2.85;;;;;;;31.57;38.65;99598.69;10497270;28;20044;-67
2022/09/18 07:54:14;;;;;;;22.05;3.08;;;;;;;31.54;39.02;99564.44;10496289;28;20110;-69
2022/09/18 07:59:15;;;;;;;12.38;2.53;;;;;;;31.74;38.20;99565.69;10496380;28;20043;-67
2022/09/18 08:04:16;;;;;;;9.25;2.70;;;;;;;31.92;38.03;99563.72;10496393;28;20559;-69
2022/09/18 08:09:17;;;;;;;21.58;3.47;;;;;;;32.25;38.04;99572.13;10496654;28;20143;-67
2022/09/18 08:14:17;;;;;;;21.40;4.07;;;;;;;31.90;38.84;99508.28;10495611;28;20067;-67
2022/09/18 08:19:19;;;;;;;20.65;3.28;;;;;;;32.29;37.88;99555.75;10495337;28;20524;-67
2022/09/18 08:24:20;;;;;;;20.13;2.60;;;;;;;32.40;37.92;99558.91;10495323;28;20055;-68
2022/09/18 08:29:20;;;;;;;15.48;2.90;;;;;;;31.97;37.14;99456.38;10511422;28;20102;-66
2022/09/18 08:34:21;;;;;;;9.60;3.13;;;;;;;32.61;37.24;99536.97;10495021;28;20043;-71
2022/09/18 08:39:22;;;;;;;20.10;2.67;;;;;;;32.70;36.33;99522.03;10495338;28;20033;-70
2022/09/18 08:44:27;;;;;;;7.45;2.40;;;;;;;32.90;36.41;99527.84;10495389;28;20122;-70
2022/09/18 08:49:32;;;;;;;13.02;2.47;;;;;;;32.67;35.68;99445.72;10495289;28;20040;-70
2022/09/18 08:54:45;;;;;;;10.55;2.30;;;;;;;33.24;35.43;99526.75;10495424;28;20039;-70
2022/09/18 08:59:52;;;;;;;13.73;2.90;;;;;;;33.30;34.66;99524.59;10501771;28;20086;-69
2022/09/18 09:04:58;;;;;;;9.07;2.50;;;;;;;33.37;34.82;99530.31;10502786;28;20040;-70
2022/09/18 09:10:12;;;;;;;12.68;2.55;;;;;;;33.54;35.10;99518.34;10503344;28;20139;-70
2022/09/18 09:15:48;;;;;;;12.38;3.05;;;;;;;33.81;34.41;99508.63;10517739;28;20093;-69
2022/09/18 09:20:54;;;;;;;12.20;2.38;;;;;;;33.79;33.96;99503.44;10502141;28;20047;-70
2022/09/18 09:26:04;;;;;;;12.05;3.08;;;;;;;33.95;33.63;99502.75;10502815;28;20560;-69
2022/09/18 09:31:08;;;;;;;10.18;2.55;;;;;;;33.90;33.57;99484.53;10502519;28;20055;-68
2022/09/18 09:36:16;;;;;;;15.18;2.80;;;;;;;34.08;32.01;99488.66;10501860;28;20040;-70
2022/09/18 09:41:21;;;;;;;17.67;2.65;;;;;;;34.24;32.85;99479.69;10501684;28;20496;-71
2022/09/18 09:46:39;;;;;;;18.70;2.88;;;;;;;34.30;32.45;99476.31;10501108;28;20488;-69
2022/09/18 09:52:13;;;;;;;14.43;3.13;;;;;;;34.27;31.41;99459.69;10501334;28;20090;-70
2022/09/18 09:57:44;;;;;;;14.82;2.67;;;;;;;34.34;31.69;99470.91;10501790;28;20039;-68
2022/09/18 10:03:00;;;;;;;17.63;3.00;;;;;;;34.44;30.95;99459.41;10500933;28;20072;-69
2022/09/18 10:08:10;;;;;;;13.43;2.75;;;;;;;34.42;31.13;99450.69;10499762;28;20287;-69
2022/09/18 10:13:16;;;;;;;11.63;2.78;;;;;;;34.31;30.54;99422.81;10500515;28;20127;-68
2022/09/18 10:18:32;;;;;;;12.70;2.22;;;;;;;34.60;30.50;99442.94;10499764;28;20575;-69
2022/09/18 10:23:38;;;;;;;15.43;2.40;;;;;;;34.43;30.29;99386.13;10498242;28;20036;-68
2022/09/18 10:28:38;;;;;;;8.85;2.60;;;;;;;34.42;30.79;99364.41;10499322;28;20055;-69
2022/09/18 10:33:42;;;;;;;13.27;2.70;;;;;;;34.79;29.85;99422.97;10499006;28;20492;-69
2022/09/18 10:38:43;;;;;;;9.60;2.90;;;;;;;34.87;30.40;99423.97;10499355;28;20097;-70
2022/09/18 10:44:00;;;;;;;9.32;2.50;;;;;;;34.95;29.11;99423.81;10498515;28;20036;-69
2022/09/18 10:49:22;;;;;;;16.65;2.75;;;;;;;35.01;29.50;99407.00;10498410;28;20488;-70
2022/09/18 10:54:28;;;;;;;17.33;2.95;;;;;;;34.98;30.15;99401.03;10496996;28;20036;-70
2022/09/18 10:59:31;;;;;;;15.15;2.85;;;;;;;35.11;29.87;99412.81;10497916;28;20547;-71
2022/09/18 11:04:33;;;;;;;8.98;2.75;;;;;;;34.98;29.95;99381.72;10498324;28;20052;-71
2022/09/18 11:09:39;;;;;;;10.00;2.63;;;;;;;35.15;30.14;99394.41;10498544;28;20049;-69
2022/09/18 11:14:44;;;;;;;11.63;2.90;;;;;;;35.15;29.74;99388.03;10499234;28;20044;-73
2022/09/18 11:19:51;;;;;;;20.92;3.35;;;;;;;34.92;29.55;99340.94;10497986;28;20043;-70
2022/09/18 11:25:07;;;;;;;8.85;3.05;;;;;;;34.91;29.47;99337.38;10496832;28;20047;-70
2022/09/18 11:30:23;;;;;;;12.82;2.90;;;;;;;35.25;29.08;99389.50;10496757;28;20076;-71
2022/09/18 11:35:27;;;;;;;15.82;3.22;;;;;;;35.15;30.13;99388.03;10497071;28;20043;-71
2022/09/18 11:40:31;;;;;;;21.10;3.65;;;;;;;35.01;29.49;99360.09;10497050;28;20062;-70
2022/09/18 11:45:54;;;;;;;13.18;3.10;;;;;;;35.28;30.00;99381.28;10497525;28;20036;-71
2022/09/18 11:50:58;;;;;;;21.10;3.45;;;;;;;35.26;29.64;99377.28;10516662;28;20040;-69
2022/09/18 11:56:10;;;;;;;11.65;2.60;;;;;;;35.06;29.88;99352.38;10517026;28;20044;-67
2022/09/18 12:01:35;;;;;;;10.20;2.65;;;;;;;35.14;29.71;99367.13;10520647;28;20040;-68
2022/09/18 12:07:13;;;;;;;17.33;3.72;;;;;;;35.15;30.83;99371.50;10495685;28;20067;-68
2022/09/18 12:12:26;;;;;;;11.95;3.17;;;;;;;35.05;29.83;99359.03;10519743;28;20397;-68
2022/09/18 12:18:03;;;;;;;10.20;3.47;;;;;;;34.77;30.05;99312.19;10537710;28;20055;-67
2022/09/18 12:23:03;;;;;;;12.75;3.10;;;;;;;34.80;30.42;99325.28;10510248;28;20125;-69
2022/09/18 12:28:33;;;;;;;18.23;3.22;;;;;;;34.73;30.22;99322.31;10521765;28;20082;-70
2022/09/18 12:33:33;;;;;;;11.18;2.78;;;;;;;34.88;30.88;99345.53;10501066;28;20043;-68
2022/09/18 12:38:56;;;;;;;15.02;3.42;;;;;;;34.39;30.26;99276.88;10503563;28;20049;-67
2022/09/18 12:44:06;;;;;;;36.45;3.90;;;;;;;34.30;31.21;99277.03;10504091;28;20413;-69
2022/09/18 12:49:43;;;;;;;12.90;2.90;;;;;;;34.54;30.75;99334.84;10504420;28;20098;-68
2022/09/18 12:55:00;;;;;;;21.17;3.40;;;;;;;34.49;30.78;99339.78;10466395;28;20066;-70
2022/09/18 13:00:10;;;;;;;19.08;3.30;;;;;;;34.36;31.15;99330.78;10506412;28;20075;-71
2022/09/18 13:05:34;;;;;;;14.02;2.92;;;;;;;34.24;31.29;99325.31;10531364;28;20114;-70
2022/09/18 13:10:40;;;;;;;10.60;2.95;;;;;;;33.73;31.48;99259.69;10526380;28;20543;-71
2022/09/18 13:16:02;;;;;;;14.02;3.42;;;;;;;34.08;31.61;99317.00;10524061;28;20048;-71
2022/09/18 13:21:08;;;;;;;13.82;3.35;;;;;;;33.82;31.99;99295.34;10512360;28;20431;-68
2022/09/18 13:26:13;;;;;;;26.40;3.33;;;;;;;33.70;32.87;99298.94;10519711;28;20587;-69
2022/09/18 13:31:23;;;;;;;14.55;3.00;;;;;;;33.70;33.52;99309.16;10527311;28;20066;-71
2022/09/18 13:36:34;;;;;;;18.23;3.50;;;;;;;33.56;33.32;99310.31;10535343;28;20046;-67
2022/09/18 13:41:50;;;;;;;24.17;4.13;;;;;;;33.13;33.57;99253.13;10524952;28;20487;-67
2022/09/18 13:47:08;;;;;;;25.52;3.65;;;;;;;33.34;34.58;99319.06;10527952;28;20044;-68
2022/09/18 13:52:28;;;;;;;15.88;3.25;;;;;;;33.19;34.51;99310.34;10526168;28;20047;-69
2022/09/18 13:57:32;;;;;;;17.33;3.20;;;;;;;32.88;34.99;99293.59;10523052;28;20077;-69
2022/09/18 14:02:35;;;;;;;28.38;4.60;;;;;;;32.70;35.08;99288.28;10530061;28;20051;-69
2022/09/18 14:07:36;;;;;;;18.85;3.75;;;;;;;32.29;35.27;99235.03;10516180;28;20113;-69
2022/09/18 14:12:36;;;;;;;17.65;3.20;;;;;;;32.42;35.54;99276.28;10514562;28;20093;-69
2022/09/18 14:17:40;;;;;;;17.27;3.28;;;;;;;32.42;36.55;99301.81;10524205;28;20032;-69
2022/09/18 14:22:40;;;;;;;39.28;4.50;;;;;;;32.23;36.96;99296.84;10531256;28;20036;-69
2022/09/18 14:27:55;;;;;;;39.38;5.10;;;;;;;31.89;38.08;99278.72;10541724;28;20488;-72
2022/09/18 14:33:05;;;;;;;71.95;6.72;;;;;;;31.88;39.14;99309.25;10540749;28;20127;-71
2022/09/18 14:38:27;;;;;;;27.00;3.85;;;;;;;31.68;40.01;99319.91;10502894;28;20420;-71
2022/09/18 14:43:27;;;;;;;21.80;4.03;;;;;;;31.41;40.33;99312.13;10498087;28;20127;-69
2022/09/18 14:48:34;;;;;;;36.75;4.97;;;;;;;31.18;41.89;99320.63;10498891;28;20130;-68
2022/09/18 14:53:42;;;;;;;36.75;5.15;;;;;;;30.84;43.12;99311.44;10516490;28;20051;-71
2022/09/18 14:58:45;;;;;;;27.27;4.70;;;;;;;30.37;43.73;99273.00;10524455;28;20047;-67
2022/09/18 15:03:49;;;;;;;80.03;7.80;;;;;;;30.50;44.38;99319.72;10538571;28;20036;-68
2022/09/18 15:08:52;;;;;;;18.52;4.10;;;;;;;29.84;44.74;99254.19;10539298;28;20095;-67
2022/09/18 15:13:55;;;;;;;28.50;4.95;;;;;;;30.02;45.69;99316.81;10518338;28;20036;-68
2022/09/18 15:18:57;;;;;;;16.00;4.22;;;;;;;29.61;46.11;99289.09;10497562;28;20047;-69
2022/09/18 15:24:01;;;;;;;22.85;4.40;;;;;;;29.66;47.25;99325.34;10496952;28;20113;-69
2022/09/18 15:29:04;;;;;;;20.20;3.90;;;;;;;29.45;47.69;99322.38;10512966;28;20051;-69
2022/09/18 15:34:13;;;;;;;15.85;3.67;;;;;;;29.22;49.18;99323.59;10496988;28;20045;-68
2022/09/18 15:39:41;;;;;;;13.85;4.70;;;;;;;29.23;49.98;99326.03;10512562;28;20040;-68
2022/09/18 15:44:54;;;;;;;13.77;4.22;;;;;;;29.15;50.10;99331.47;10498665;28;20093;-68
2022/09/18 15:49:56;;;;;;;9.80;3.70;;;;;;;28.99;49.76;99320.91;10513743;28;20056;-69
2022/09/18 15:55:18;;;;;;;12.00;4.25;;;;;;;28.62;50.62;99262.84;10493224;28;20135;-70
2022/09/18 16:00:24;;;;;;;12.52;3.72;;;;;;;28.96;50.83;99329.75;10509242;28;20045;-71
2022/09/18 16:05:30;;;;;;;24.73;4.30;;;;;;;28.90;51.73;99333.75;10503077;28;20045;-70
2022/09/18 16:10:34;;;;;;;24.25;4.13;;;;;;;28.83;52.78;99338.84;10495264;28;20073;-68
2022/09/18 16:15:35;;;;;;;22.02;5.88;;;;;;;28.59;52.79;99318.13;10497597;28;20048;-70
2022/09/18 16:20:41;;;;;;;26.70;7.03;;;;;;;28.23;54.78;99275.28;10495925;28;20036;-70
2022/09/18 16:25:43;;;;;;;12.85;4.22;;;;;;;27.91;54.60;99250.97;10494697;28;20048;-72
2022/09/18 16:30:45;;;;;;;12.43;4.60;;;;;;;28.07;55.02;99295.91;10520255;28;20047;-69
2022/09/18 16:35:53;;;;;;;13.63;4.88;;;;;;;27.49;55.82;99232.00;10510544;28;20047;-70
2022/09/18 16:40:54;;;;;;;26.00;4.75;;;;;;;27.79;56.15;99288.94;10517280;28;20135;-70
2022/09/18 16:45:55;;;;;;;13.65;3.92;;;;;;;28.03;56.54;99346.81;10510258;28;20036;-70
2022/09/18 16:50:56;;;;;;;14.02;4.50;;;;;;;27.93;57.29;99369.66;10512594;28;20047;-70
2022/09/18 16:55:57;;;;;;;14.30;4.40;;;;;;;27.77;57.99;99360.97;10514309;28;20400;-70
2022/09/18 17:00:59;;;;;;;21.30;4.20;;;;;;;27.24;58.69;99289.81;10513698;28;20036;-70
2022/09/18 17:06:01;;;;;;;17.08;5.00;;;;;;;27.59;59.05;99370.09;10536507;28;20181;-69
2022/09/18 17:11:02;;;;;;;23.02;4.63;;;;;;;27.33;59.61;99360.81;10514874;28;20041;-69
2022/09/18 17:16:03;;;;;;;18.30;5.32;;;;;;;27.18;60.26;99353.72;10510054;28;20162;-68
2022/09/18 17:21:05;;;;;;;15.93;4.80;;;;;;;26.77;60.84;99303.47;10516219;28;20067;-68
2022/09/18 17:26:08;;;;;;;21.20;4.78;;;;;;;27.06;61.61;99363.19;10521578;28;20039;-67
2022/09/18 17:31:11;;;;;;;11.75;4.60;;;;;;;26.94;62.32;99370.22;10523594;28;20033;-70
2022/09/18 17:36:14;;;;;;;15.38;5.07;;;;;;;26.40;62.68;99307.91;10518273;28;20400;-68
2022/09/18 17:41:18;;;;;;;16.15;5.05;;;;;;;26.59;63.52;99367.00;10517276;28;20043;-69
2022/09/18 17:46:19;;;;;;;15.52;5.22;;;;;;;26.21;63.76;99328.13;10519175;28;20032;-68
2022/09/18 17:51:20;;;;;;;13.38;4.82;;;;;;;26.39;64.37;99377.09;10527966;28;20120;-68
2022/09/18 17:56:28;;;;;;;17.75;5.13;;;;;;;26.33;64.96;99389.19;10512079;28;20488;-69
2022/09/18 18:01:30;;;;;;;22.73;5.93;;;;;;;26.12;66.02;99366.91;10521482;28;20415;-69
2022/09/18 18:06:32;;;;;;;16.20;5.55;;;;;;;25.95;66.28;99370.13;10539644;28;20055;-69
2022/09/18 18:11:32;;;;;;;32.55;5.38;;;;;;;25.76;67.09;99352.13;10529060;28;20143;-69
2022/09/18 18:16:33;;;;;;;11.43;4.55;;;;;;;25.66;67.75;99355.81;10528331;28;20111;-70
2022/09/18 18:21:34;;;;;;;14.40;5.38;;;;;;;25.56;68.21;99347.78;10539100;28;20052;-69
2022/09/18 18:26:37;;;;;;;14.48;5.07;;;;;;;25.51;68.68;99367.69;10539723;28;20040;-70
2022/09/18 18:31:40;;;;;;;13.77;5.13;;;;;;;25.35;69.02;99369.78;10533819;28;20090;-70
2022/09/18 18:36:41;;;;;;;14.13;5.03;;;;;;;24.90;69.76;99311.28;10539120;28;20097;-69
2022/09/18 18:41:43;;;;;;;16.67;5.07;;;;;;;25.02;70.19;99355.16;10538181;28;20036;-69
2022/09/18 18:46:44;;;;;;;10.65;4.90;;;;;;;24.45;70.71;99286.19;10536335;28;20044;-69
2022/09/18 18:51:46;;;;;;;11.93;4.57;;;;;;;24.73;71.89;99350.53;10537504;28;20423;-70
2022/09/18 18:56:48;;;;;;;15.48;4.80;;;;;;;24.76;71.98;99366.25;10548440;28;20032;-69
2022/09/18 19:01:49;;;;;;;20.15;5.55;;;;;;;24.66;72.41;99341.13;10538194;28;20048;-69
2022/09/18 19:06:50;;;;;;;14.80;5.00;;;;;;;24.76;72.34;99357.31;10536988;28;20466;-70
2022/09/18 19:11:51;;;;;;;16.63;4.90;;;;;;;24.77;72.33;99348.09;10537571;28;20036;-69
2022/09/18 19:16:53;;;;;;;15.68;4.60;;;;;;;24.78;72.52;99345.06;10537424;28;20105;-70
2022/09/18 19:21:58;;;;;;;17.10;4.63;;;;;;;24.74;72.22;99335.88;10519653;28;20509;-69
2022/09/18 19:26:59;;;;;;;14.25;4.30;;;;;;;24.59;71.42;99298.00;10537705;28;20044;-69
2022/09/18 19:32:01;;;;;;;9.70;4.47;;;;;;;24.76;71.83;99339.09;10538833;28;20028;-69
2022/09/18 19:37:02;;;;;;;17.83;4.78;;;;;;;24.78;72.17;99352.41;10539215;28;20516;-69
2022/09/18 19:42:11;;;;;;;12.82;4.95;;;;;;;24.58;73.56;99332.47;10538344;28;20177;-69
2022/09/18 19:47:44;;;;;;;17.85;4.55;;;;;;;24.65;74.42;99356.59;10537347;28;20115;-69
2022/09/18 19:52:45;;;;;;;19.23;5.32;;;;;;;24.06;73.12;99287.03;10537900;28;20443;-69
2022/09/18 19:57:52;;;;;;;9.70;4.97;;;;;;;24.37;75.70;99352.72;10538669;28;20039;-70
2022/09/18 20:02:56;;;;;;;9.52;4.57;;;;;;;24.17;75.91;99355.56;10534920;28;20040;-69
2022/09/18 20:08:00;;;;;;;16.48;5.05;;;;;;;23.82;75.52;99320.25;10507027;28;20458;-69
2022/09/18 20:13:01;;;;;;;14.45;4.85;;;;;;;23.30;76.06;99253.00;10495686;28;20045;-69
2022/09/18 20:18:05;;;;;;;14.57;4.80;;;;;;;23.32;78.29;99277.94;10494767;28;20043;-68
2022/09/18 20:23:06;;;;;;;15.63;5.10;;;;;;;23.57;77.89;99325.78;10496185;28;20044;-69
2022/09/18 20:28:07;;;;;;;16.58;5.18;;;;;;;23.06;78.47;99247.41;10495794;28;20082;-69
2022/09/18 20:33:07;;;;;;;10.30;4.63;;;;;;;23.00;78.70;99242.03;10495062;28;20041;-69
2022/09/18 20:38:10;;;;;;;16.42;5.35;;;;;;;23.35;79.28;99308.00;10495433;28;20047;-69
2022/09/18 20:43:11;;;;;;;13.82;5.25;;;;;;;22.67;79.78;99212.84;10495034;28;20045;-70
2022/09/18 20:48:12;;;;;;;15.40;5.72;;;;;;;23.18;80.88;99312.94;10496419;28;20492;-69
2022/09/18 20:53:12;;;;;;;15.52;5.88;;;;;;;23.11;81.41;99313.22;10497896;28;20052;-68
2022/09/18 20:58:13;;;;;;;14.30;5.97;;;;;;;22.98;82.00;99297.56;10503632;28;20174;-69
2022/09/18 21:03:19;;;;;;;14.45;6.18;;;;;;;22.84;82.80;99278.34;10503151;28;20454;-70
2022/09/18 21:08:21;;;;;;;15.95;6.50;;;;;;;22.61;83.00;99246.44;10503712;28;20061;-70
2022/09/18 21:13:22;;;;;;;10.88;5.45;;;;;;;22.75;83.73;99280.78;10503321;28;20071;-69
2022/09/18 21:18:23;;;;;;;22.10;7.00;;;;;;;22.49;84.44;99262.97;10503062;28;20403;-69
2022/09/18 21:29:05;;;;;;;11.32;5.95;;;;;;;21.71;87.12;99201.03;10501536;28;20520;-68
2022/09/18 21:34:06;;;;;;;13.90;6.55;;;;;;;22.27;87.84;99298.44;10500600;28;20119;-69
2022/09/18 21:39:06;;;;;;;17.27;6.88;;;;;;;22.26;89.42;99286.00;10501862;28;20516;-69
2022/09/18 21:44:08;;;;;;;22.88;6.70;;;;;;;22.22;90.65;99282.19;10501313;28;20508;-69
2022/09/18 21:49:11;;;;;;;14.10;7.40;;;;;;;21.99;91.82;99251.06;10501851;28;20508;-68
2022/09/18 21:54:17;;;;;;;13.97;7.90;;;;;;;22.09;93.49;99272.69;10500753;28;20425;-69
2022/09/18 21:59:21;;;;;;;14.55;7.80;;;;;;;21.92;94.35;99254.03;10501239;28;20454;-69
2022/09/18 22:04:25;;;;;;;;;;;;;;;22.13;94.42;99262.94;10500415;28;20045;-68
2022/09/18 22:09:31;;;;;;;14.60;8.25;;;;;;;21.85;97.51;99245.38;10501292;28;19956;-68
2022/09/18 22:14:33;;;;;;;15.70;8.38;;;;;;;21.43;96.92;99203.94;10500292;28;20041;-68
2022/09/18 22:19:34;;;;;;;13.52;8.32;;;;;;;21.61;97.66;99240.47;10500962;28;20036;-69
2022/09/18 22:24:35;;;;;;;20.30;9.02;;;;;;;21.09;98.75;99154.97;10500056;28;20048;-69
2022/09/18 22:29:37;;;;;;;23.50;10.02;;;;;;;21.68;100.00;99255.63;10499548;28;20040;-69
2022/09/18 22:34:40;;;;;;;17.05;9.40;;;;;;;21.48;100.00;99215.84;10511036;28;20040;-69
2022/09/18 22:39:41;;;;;;;16.60;10.77;;;;;;;21.26;100.00;99184.44;10500119;28;20055;-69
2022/09/18 22:44:41;;;;;;;21.30;10.93;;;;;;;21.65;100.00;99256.97;10498514;28;20047;-69
2022/09/18 22:49:42;;;;;;;17.13;10.63;;;;;;;21.54;100.00;99245.34;10498556;28;20085;-69
2022/09/18 22:54:43;;;;;;;19.48;10.68;;;;;;;21.56;100.00;99253.16;10498389;28;20047;-69
2022/09/18 22:59:44;;;;;;;17.20;10.70;;;;;;;21.03;100.00;99177.63;10499132;28;20090;-68
2022/09/18 23:04:45;;;;;;;23.33;12.40;;;;;;;21.15;100.00;99209.81;10497859;28;20558;-65
2022/09/18 23:09:46;;;;;;;19.73;13.10;;;;;;;21.33;100.00;99243.59;10497775;28;20075;-68
2022/09/18 23:14:47;;;;;;;22.30;14.02;;;;;;;21.28;100.00;99244.41;10497801;28;20132;-69
2022/09/18 23:19:48;;;;;;;19.98;12.55;;;;;;;21.11;100.00;99233.00;10498163;28;20040;-68
2022/09/18 23:24:49;;;;;;;16.70;13.18;;;;;;;21.13;100.00;99244.34;10506044;28;20048;-68